createdAt,value
2022-08-26T00:02:17.357Z,6.22
2022-08-26T00:04:50.063Z,6.53
2022-08-26T00:07:18.870Z,5.85
2022-08-26T00:09:47.423Z,5.53
2022-08-26T00:12:15.703Z,6.50
2022-08-26T00:14:43.871Z,5.78
2022-08-26T00:17:12.304Z,5.72
2022-08-26T00:19:40.416Z,5.65
2022-08-26T00:22:12.535Z,5.80
2022-08-26T00:24:48.295Z,5.72
2022-08-26T00:27:16.356Z,6.35
2022-08-26T00:29:45.360Z,6.47
2022-08-26T00:32:13.489Z,6.40
2022-08-26T00:34:42.399Z,5.60
2022-08-26T00:37:15.658Z,5.53
2022-08-26T00:39:44.233Z,6.18
2022-08-26T00:42:13.936Z,6.05
2022-08-26T00:44:42.061Z,5.15
2022-08-26T00:47:17.474Z,6.88
2022-08-26T00:49:48.534Z,5.78
2022-08-26T00:52:21.247Z,6.65
2022-08-26T00:54:57.876Z,6.03
2022-08-26T00:57:26.133Z,5.40
2022-08-26T00:59:57.429Z,6.03
2022-08-26T01:02:25.887Z,5.80
2022-08-26T01:04:59.858Z,5.53
2022-08-26T01:07:31.328Z,5.88
2022-08-26T01:10:01.032Z,6.03
2022-08-26T01:12:32.354Z,6.05
2022-08-26T01:15:02.101Z,5.78
2022-08-26T01:17:30.174Z,6.30
2022-08-26T01:20:08.688Z,6.75
2022-08-26T01:22:47.244Z,6.25
2022-08-26T01:25:16.021Z,6.25
2022-08-26T01:27:44.898Z,5.85
2022-08-26T01:30:17.832Z,5.90
2022-08-26T01:32:46.725Z,6.07
2022-08-26T01:35:14.782Z,6.75
2022-08-26T01:37:44.678Z,6.28
2022-08-26T01:40:19.409Z,6.53
2022-08-26T01:42:49.124Z,7.20
2022-08-26T01:45:22.245Z,6.50
2022-08-26T01:47:56.834Z,6.57
2022-08-26T01:50:30.693Z,7.53
2022-08-26T01:53:03.770Z,6.65
2022-08-26T01:55:34.039Z,6.32
2022-08-26T01:58:07.080Z,6.38
2022-08-26T02:00:36.372Z,7.05
2022-08-26T02:03:21.446Z,5.93
2022-08-26T02:05:56.107Z,6.00
2022-08-26T02:08:29.801Z,5.40
2022-08-26T02:10:58.566Z,6.22
2022-08-26T02:13:29.994Z,7.03
2022-08-26T02:15:58.898Z,6.28
2022-08-26T02:18:28.639Z,5.97
2022-08-26T02:20:58.053Z,5.63
2022-08-26T02:23:27.507Z,6.28
2022-08-26T02:26:01.028Z,5.93
2022-08-26T02:28:34.360Z,5.72
2022-08-26T02:31:02.783Z,5.85
2022-08-26T02:33:31.264Z,6.03
2022-08-26T02:35:59.322Z,6.13
2022-08-26T02:38:29.447Z,5.57
2022-08-26T02:40:57.756Z,5.78
2022-08-26T02:43:31.347Z,6.25
2022-08-26T02:46:02.293Z,5.65
2022-08-26T02:48:30.785Z,5.05
2022-08-26T02:51:00.299Z,5.13
2022-08-26T02:53:32.084Z,5.78
2022-08-26T02:56:04.314Z,5.50
2022-08-26T02:58:32.449Z,5.65
2022-08-26T03:01:01.568Z,6.90
2022-08-26T03:03:33.396Z,7.60
2022-08-26T03:06:01.525Z,7.75
2022-08-26T03:08:30.881Z,6.20
2022-08-26T03:10:59.282Z,7.50
2022-08-26T03:13:29.927Z,6.72
2022-08-26T03:15:57.983Z,6.45
2022-08-26T03:18:26.876Z,6.40
2022-08-26T03:20:54.952Z,6.55
2022-08-26T03:23:23.422Z,7.40
2022-08-26T03:25:54.074Z,7.35
2022-08-26T03:28:22.192Z,7.15
2022-08-26T03:30:49.271Z,6.82
2022-08-26T03:33:19.059Z,7.65
2022-08-26T03:35:50.501Z,6.82
2022-08-26T03:38:19.937Z,6.68
2022-08-26T03:40:48.074Z,6.75
2022-08-26T03:43:18.429Z,5.75
2022-08-26T03:45:46.485Z,6.20
2022-08-26T03:48:14.956Z,6.53
2022-08-26T03:50:43.618Z,5.78
2022-08-26T03:53:13.130Z,6.05
2022-08-26T03:55:42.256Z,6.00
2022-08-26T03:58:11.374Z,6.00
2022-08-26T04:00:40.762Z,6.45
2022-08-26T04:06:09.329Z,6.65
2022-08-26T04:08:37.835Z,6.88
2022-08-26T04:11:07.220Z,6.18
2022-08-26T04:13:35.615Z,6.43
2022-08-26T04:16:05.422Z,6.55
2022-08-26T04:18:37.025Z,6.30
2022-08-26T04:21:07.900Z,5.45
2022-08-26T04:23:47.038Z,5.47
2022-08-26T04:26:16.282Z,5.95
2022-08-26T04:28:44.321Z,6.55
2022-08-26T04:31:15.562Z,6.43
2022-08-26T04:33:44.236Z,6.05
2022-08-26T04:36:15.303Z,7.05
2022-08-26T04:38:44.543Z,6.47
2022-08-26T04:41:14.955Z,6.55
2022-08-26T04:43:43.983Z,6.75
2022-08-26T04:46:14.593Z,6.70
2022-08-26T04:48:44.014Z,6.88
2022-08-26T04:51:12.533Z,7.00
2022-08-26T04:53:40.767Z,7.60
2022-08-26T04:56:09.330Z,7.88
2022-08-26T04:58:38.250Z,7.68
2022-08-26T05:01:08.304Z,6.93
2022-08-26T05:03:38.170Z,6.80
2022-08-26T05:06:09.445Z,6.88
2022-08-26T05:08:37.520Z,6.43
2022-08-26T05:11:07.434Z,7.15
2022-08-26T05:13:39.158Z,8.10
2022-08-26T05:16:11.639Z,7.18
2022-08-26T05:18:43.474Z,8.48
2022-08-26T05:21:19.998Z,8.52
2022-08-26T05:23:49.067Z,6.90
2022-08-26T05:26:18.028Z,7.75
2022-08-26T05:28:51.223Z,9.30
2022-08-26T05:31:26.315Z,8.00
2022-08-26T05:33:56.792Z,9.13
2022-08-26T05:36:27.123Z,10.57
2022-08-26T05:38:55.671Z,12.75
2022-08-26T05:41:34.425Z,14.43
2022-08-26T05:44:06.430Z,15.00
2022-08-26T05:46:35.578Z,15.57
2022-08-26T05:49:06.054Z,16.92
2022-08-26T05:51:42.128Z,16.02
2022-08-26T05:54:10.484Z,14.60
2022-08-26T05:56:39.053Z,15.35
2022-08-26T05:59:14.136Z,17.42
2022-08-26T06:01:43.878Z,15.07
2022-08-26T06:04:13.757Z,14.52
2022-08-26T06:06:43.032Z,14.63
2022-08-26T06:09:13.131Z,16.35
2022-08-26T06:11:41.126Z,14.52
2022-08-26T06:14:11.728Z,16.52
2022-08-26T06:16:43.784Z,15.90
2022-08-26T06:19:17.237Z,15.13
2022-08-26T06:21:54.122Z,15.00
2022-08-26T06:24:40.166Z,15.23
2022-08-26T06:27:09.971Z,16.35
2022-08-26T06:29:39.805Z,14.95
2022-08-26T06:32:08.680Z,16.70
2022-08-26T06:34:38.366Z,15.88
2022-08-26T06:37:07.186Z,14.75
2022-08-26T06:39:35.461Z,14.00
2022-08-26T06:42:08.635Z,15.38
2022-08-26T06:44:39.015Z,14.25
2022-08-26T06:47:09.053Z,15.02
2022-08-26T06:49:38.513Z,15.23
2022-08-26T06:52:07.883Z,13.82
2022-08-26T06:54:37.027Z,14.65
2022-08-26T06:57:07.137Z,13.45
2022-08-26T06:59:35.158Z,14.43
2022-08-26T07:02:03.469Z,14.27
2022-08-26T07:04:31.685Z,14.13
2022-08-26T07:07:01.401Z,13.50
2022-08-26T07:09:33.131Z,12.90
2022-08-26T07:12:01.793Z,12.85
2022-08-26T07:14:31.660Z,12.93
2022-08-26T07:17:01.322Z,12.25
2022-08-26T07:19:31.417Z,13.38
2022-08-26T07:22:04.032Z,13.82
2022-08-26T07:24:33.606Z,13.32
2022-08-26T07:27:05.804Z,13.02
2022-08-26T07:29:34.522Z,13.75
2022-08-26T07:32:03.346Z,14.57
2022-08-26T07:34:32.224Z,13.63
2022-08-26T07:37:02.773Z,12.90
2022-08-26T07:39:32.332Z,13.23
2022-08-26T07:42:01.667Z,13.85
2022-08-26T07:44:36.147Z,13.38
2022-08-26T07:47:10.366Z,14.32
2022-08-26T07:49:52.990Z,15.07
2022-08-26T07:52:26.608Z,14.43
2022-08-26T07:54:55.995Z,14.95
2022-08-26T07:57:24.426Z,14.32
2022-08-26T07:59:54.018Z,14.25
2022-08-26T08:02:24.292Z,15.60
2022-08-26T08:04:53.142Z,15.85
2022-08-26T08:07:21.696Z,15.27
2022-08-26T08:10:09.954Z,14.48
2022-08-26T08:12:39.886Z,14.63
2022-08-26T08:15:09.869Z,13.57
2022-08-26T08:17:38.286Z,13.43
2022-08-26T08:20:07.672Z,13.05
2022-08-26T08:22:36.050Z,12.35
2022-08-26T08:25:08.037Z,13.60
2022-08-26T08:27:39.837Z,13.02
2022-08-26T08:30:10.049Z,13.40
2022-08-26T08:32:43.501Z,14.05
2022-08-26T08:35:13.503Z,12.18
2022-08-26T08:37:43.643Z,13.48
2022-08-26T08:40:14.071Z,12.73
2022-08-26T08:42:48.874Z,13.48
2022-08-26T08:45:21.215Z,13.35
2022-08-26T08:47:53.019Z,13.15
2022-08-26T08:50:27.355Z,12.95
2022-08-26T08:53:05.801Z,12.82
2022-08-26T08:55:51.842Z,13.05
2022-08-26T08:58:28.221Z,12.35
2022-08-26T09:01:03.010Z,11.48
2022-08-26T09:03:44.049Z,12.40
2022-08-26T09:06:18.975Z,11.98
2022-08-26T09:12:36.170Z,11.57
2022-08-26T09:15:22.538Z,11.25
2022-08-26T09:18:00.058Z,11.63
2022-08-26T09:20:39.441Z,11.60
2022-08-26T09:23:07.915Z,11.73
2022-08-26T09:25:46.999Z,10.77
2022-08-26T09:28:18.806Z,11.20
2022-08-26T09:30:59.357Z,10.70
2022-08-26T09:33:30.374Z,10.95
2022-08-26T09:36:15.255Z,11.00
2022-08-26T09:38:44.182Z,11.20
2022-08-26T09:41:24.736Z,11.27
2022-08-26T09:44:15.774Z,12.05
2022-08-26T09:46:55.555Z,10.55
2022-08-26T09:49:36.027Z,10.50
2022-08-26T09:52:16.322Z,10.32
2022-08-26T09:54:46.162Z,10.95
2022-08-26T09:57:21.095Z,11.48
2022-08-26T09:59:51.049Z,9.18
2022-08-26T10:02:38.371Z,10.80
2022-08-26T10:05:11.346Z,10.82
2022-08-26T10:08:26.955Z,13.23
2022-08-26T10:10:57.581Z,11.38
2022-08-26T10:13:34.373Z,9.07
2022-08-26T10:16:15.551Z,9.20
2022-08-26T10:18:50.882Z,9.07
2022-08-26T10:21:24.865Z,10.30
2022-08-26T10:23:56.928Z,10.48
2022-08-26T10:26:29.160Z,9.57
2022-08-26T10:29:06.241Z,8.98
2022-08-26T10:31:40.491Z,8.68
2022-08-26T10:34:12.497Z,9.60
2022-08-26T10:37:14.488Z,9.10
2022-08-26T10:39:49.463Z,8.00
2022-08-26T10:42:29.111Z,8.00
2022-08-26T10:45:03.164Z,8.32
2022-08-26T10:47:38.320Z,7.82
2022-08-26T10:50:08.597Z,7.32
2022-08-26T10:52:51.048Z,8.10
2022-08-26T10:55:28.556Z,7.43
2022-08-26T10:58:06.501Z,7.53
2022-08-26T11:01:00.936Z,7.47
2022-08-26T11:03:37.835Z,8.32
2022-08-26T11:06:24.812Z,6.82
2022-08-26T11:08:55.434Z,7.43
2022-08-26T11:11:51.341Z,7.32
2022-08-26T11:14:46.099Z,6.68
2022-08-26T11:17:56.611Z,6.43
2022-08-26T11:20:39.135Z,6.55
2022-08-26T11:23:50.606Z,6.53
2022-08-26T11:26:36.150Z,6.65
2022-08-26T11:29:13.205Z,6.28
2022-08-26T11:31:55.990Z,6.13
2022-08-26T11:34:54.099Z,5.43
2022-08-26T11:37:27.361Z,5.85
2022-08-26T11:39:57.849Z,6.43
2022-08-26T11:42:34.327Z,5.57
2022-08-26T11:45:14.301Z,5.63
2022-08-26T11:47:42.626Z,5.80
2022-08-26T11:50:14.501Z,5.57
2022-08-26T11:52:51.323Z,5.00
2022-08-26T11:55:23.224Z,5.35
2022-08-26T11:57:55.416Z,5.35
2022-08-26T12:00:26.456Z,6.07
2022-08-26T12:02:55.625Z,5.65
2022-08-26T12:05:29.529Z,5.78
2022-08-26T12:08:03.731Z,6.00
2022-08-26T12:10:34.834Z,6.25
2022-08-26T12:13:05.322Z,6.18
2022-08-26T12:15:35.608Z,5.68
2022-08-26T12:18:20.636Z,6.22
2022-08-26T12:21:00.596Z,5.93
2022-08-26T12:23:41.937Z,5.68
2022-08-26T12:26:20.860Z,5.50
2022-08-26T12:28:51.881Z,5.97
2022-08-26T12:31:41.811Z,5.38
2022-08-26T12:34:17.991Z,5.15
2022-08-26T12:36:49.755Z,6.00
2022-08-26T12:39:27.820Z,5.85
2022-08-26T12:41:59.042Z,5.45
2022-08-26T12:44:54.207Z,5.32
2022-08-26T12:47:36.922Z,6.13
2022-08-26T12:50:17.479Z,6.80
2022-08-26T12:52:57.678Z,6.07
2022-08-26T12:55:27.678Z,6.05
2022-08-26T12:58:13.416Z,6.65
2022-08-26T13:00:43.365Z,6.22
2022-08-26T13:03:43.287Z,5.60
2022-08-26T13:06:15.646Z,6.40
2022-08-26T13:08:45.742Z,7.07
2022-08-26T13:11:20.053Z,7.18
2022-08-26T13:13:51.632Z,6.68
2022-08-26T13:16:20.379Z,5.63
2022-08-26T13:18:49.497Z,6.88
2022-08-26T13:21:19.926Z,6.85
2022-08-26T13:23:48.325Z,6.28
2022-08-26T13:26:16.763Z,6.93
2022-08-26T13:28:44.879Z,6.50
2022-08-26T13:31:18.146Z,6.60
2022-08-26T13:33:47.037Z,6.68
2022-08-26T13:36:17.426Z,6.10
2022-08-26T13:38:48.330Z,6.75
2022-08-26T13:41:28.888Z,9.15
2022-08-26T13:43:59.553Z,8.23
2022-08-26T13:46:29.704Z,7.78
2022-08-26T13:48:58.452Z,6.70
2022-08-26T13:51:28.166Z,7.03
2022-08-26T14:33:42.340Z,7.30
2022-08-26T14:36:25.100Z,7.47
2022-08-26T14:38:54.100Z,6.60
2022-08-26T14:41:23.921Z,6.80
2022-08-26T14:43:57.893Z,6.68
2022-08-26T14:46:34.601Z,5.30
2022-08-26T14:49:07.280Z,5.40
2022-08-26T14:51:38.013Z,5.93
2022-08-26T14:54:16.163Z,5.35
2022-08-26T14:56:48.503Z,5.07
2022-08-26T14:59:19.318Z,5.50
2022-08-26T15:01:47.807Z,5.28
2022-08-26T15:04:17.719Z,4.90
2022-08-26T15:06:46.152Z,7.18
2022-08-26T15:09:14.879Z,6.00
2022-08-26T15:11:43.115Z,5.97
2022-08-26T15:14:14.681Z,5.35
2022-08-26T15:16:49.106Z,6.43
2022-08-26T15:19:18.784Z,6.75
2022-08-26T15:21:47.857Z,6.47
2022-08-26T15:24:17.039Z,6.38
2022-08-26T15:26:45.870Z,6.32
2022-08-26T15:29:14.370Z,6.35
2022-08-26T15:31:43.060Z,6.53
2022-08-26T15:34:16.456Z,6.50
2022-08-26T15:36:48.155Z,6.63
2022-08-26T15:39:18.088Z,6.80
2022-08-26T15:41:46.263Z,6.30
2022-08-26T15:44:57.575Z,6.85
2022-08-26T15:47:25.592Z,6.65
2022-08-26T15:49:53.670Z,6.45
2022-08-26T15:52:23.095Z,6.78
2022-08-26T15:54:51.405Z,6.45
2022-08-26T15:57:19.833Z,6.15
2022-08-26T15:59:48.376Z,5.95
2022-08-26T16:02:16.554Z,6.03
2022-08-26T16:04:44.646Z,6.07
2022-08-26T16:07:13.545Z,6.38
2022-08-26T16:09:42.986Z,5.80
2022-08-26T16:12:11.106Z,6.00
2022-08-26T16:14:42.002Z,7.25
2022-08-26T16:17:10.055Z,6.78
2022-08-26T16:19:38.244Z,6.63
2022-08-26T16:22:09.124Z,6.80
2022-08-26T16:24:37.662Z,6.68
2022-08-26T16:27:08.609Z,6.93
2022-08-26T16:29:39.315Z,6.97
2022-08-26T16:32:08.878Z,7.30
2022-08-26T16:34:36.947Z,7.15
2022-08-26T16:37:05.040Z,7.28
2022-08-26T16:39:33.495Z,6.85
2022-08-26T16:42:09.931Z,7.25
2022-08-26T16:44:45.321Z,7.28
2022-08-26T16:47:14.191Z,7.03
2022-08-26T16:49:43.134Z,7.30
2022-08-26T16:52:14.126Z,8.23
2022-08-26T16:54:42.455Z,7.90
2022-08-26T16:57:14.325Z,8.05
2022-08-26T16:59:42.752Z,8.13
2022-08-26T17:02:11.772Z,8.35
2022-08-26T17:04:41.137Z,7.80
2022-08-26T17:07:14.176Z,8.43
2022-08-26T17:09:43.072Z,8.40
2022-08-26T17:12:12.502Z,7.97
2022-08-26T17:14:40.596Z,7.53
2022-08-26T17:17:08.772Z,7.10
2022-08-26T17:19:41.073Z,7.10
2022-08-26T17:22:15.199Z,7.60
2022-08-26T17:24:43.334Z,6.63
2022-08-26T17:27:12.855Z,7.90
2022-08-26T17:29:41.027Z,7.50
2022-08-26T17:32:09.098Z,7.65
2022-08-26T17:34:37.143Z,7.80
2022-08-26T17:37:05.415Z,8.13
2022-08-26T17:39:33.456Z,7.57
2022-08-26T17:42:01.512Z,8.15
2022-08-26T17:44:30.935Z,7.90
2022-08-26T17:46:58.974Z,8.23
2022-08-26T17:49:27.354Z,7.25
2022-08-26T17:51:57.992Z,6.90
2022-08-26T17:54:27.706Z,8.20
2022-08-26T17:56:58.268Z,8.27
2022-08-26T17:59:30.539Z,8.27
2022-08-26T18:02:00.288Z,8.40
2022-08-26T18:04:28.500Z,8.25
2022-08-26T18:06:56.605Z,7.82
2022-08-26T18:09:24.652Z,7.78
2022-08-26T18:11:52.778Z,8.55
2022-08-26T18:14:21.759Z,9.15
2022-08-26T18:16:50.968Z,8.45
2022-08-26T18:19:20.473Z,8.00
2022-08-26T18:21:48.537Z,9.02
2022-08-26T18:24:16.602Z,9.07
2022-08-26T18:26:48.880Z,8.18
2022-08-26T18:29:18.186Z,7.55
2022-08-26T18:31:46.677Z,7.35
2022-08-26T18:34:16.082Z,8.00
2022-08-26T18:36:45.634Z,7.82
2022-08-26T18:39:15.341Z,7.50
2022-08-26T18:41:45.770Z,7.00
2022-08-26T18:44:16.192Z,7.43
2022-08-26T18:46:46.503Z,7.50
2022-08-26T18:49:16.544Z,7.82
2022-08-26T18:51:46.593Z,7.47
2022-08-26T18:54:15.697Z,7.10
2022-08-26T18:56:43.890Z,7.72
2022-08-26T18:59:13.539Z,7.25
2022-08-26T19:01:42.621Z,7.93
2022-08-26T19:04:15.321Z,7.32
2022-08-26T19:06:46.941Z,7.72
2022-08-26T19:09:17.853Z,8.15
2022-08-26T19:11:46.999Z,8.02
2022-08-26T19:14:18.398Z,8.15
2022-08-26T19:16:49.618Z,8.77
2022-08-26T19:19:18.244Z,8.40
2022-08-26T19:21:47.789Z,8.55
2022-08-26T19:24:17.752Z,8.75
2022-08-26T19:26:47.340Z,8.30
2022-08-26T19:31:44.931Z,8.90
2022-08-26T19:34:18.249Z,8.38
2022-08-26T19:36:53.039Z,8.50
2022-08-26T19:39:21.317Z,9.27
2022-08-26T19:41:49.780Z,8.93
2022-08-26T19:44:39.912Z,9.60
2022-08-26T19:47:10.263Z,8.50
2022-08-26T19:49:38.915Z,9.23
2022-08-26T19:52:08.832Z,9.18
2022-08-26T19:54:36.872Z,9.48
2022-08-26T19:57:05.898Z,9.77
2022-08-26T19:59:35.351Z,9.10
2022-08-26T20:02:07.117Z,10.43
2022-08-26T20:04:38.262Z,9.95
2022-08-26T20:07:09.011Z,8.68
2022-08-26T20:09:38.382Z,8.80
2022-08-26T20:12:07.856Z,8.52
2022-08-26T20:14:36.432Z,8.77
2022-08-26T20:17:05.165Z,9.13
2022-08-26T20:19:50.891Z,9.48
2022-08-26T20:22:20.967Z,8.65
2022-08-26T20:24:49.808Z,8.68
2022-08-26T20:27:18.041Z,9.43
2022-08-26T20:29:46.096Z,8.52
2022-08-26T20:32:14.219Z,10.45
2022-08-26T20:34:42.667Z,8.60
2022-08-26T20:37:10.883Z,9.43
2022-08-26T20:39:40.395Z,10.05
2022-08-26T20:42:20.055Z,11.70
2022-08-26T20:44:54.374Z,10.65
2022-08-26T20:47:23.628Z,11.65
2022-08-26T20:49:52.308Z,11.73
2022-08-26T20:52:21.342Z,11.15
2022-08-26T20:54:50.777Z,11.18
2022-08-26T20:57:19.036Z,11.80
2022-08-26T20:59:47.158Z,11.27
2022-08-26T21:02:15.257Z,10.10
2022-08-26T21:04:43.462Z,9.10
2022-08-26T21:07:11.578Z,10.35
2022-08-26T21:09:39.728Z,12.50
2022-08-26T21:12:09.386Z,11.25
2022-08-26T21:14:37.501Z,13.25
2022-08-26T21:17:05.913Z,14.02
2022-08-26T21:19:34.010Z,12.82
2022-08-26T21:22:02.089Z,11.48
2022-08-26T21:24:30.187Z,12.00
2022-08-26T21:26:58.260Z,11.90
2022-08-26T21:29:27.709Z,12.48
2022-08-26T21:31:55.856Z,13.48
2022-08-26T21:34:23.984Z,12.25
2022-08-26T21:36:52.087Z,10.77
2022-08-26T21:39:20.327Z,13.25
2022-08-26T21:41:48.565Z,11.68
2022-08-26T21:44:18.604Z,12.25
2022-08-26T21:46:49.019Z,12.38
2022-08-26T21:49:17.879Z,12.63
2022-08-26T21:51:48.852Z,11.30
2022-08-26T21:58:49.045Z,11.55
2022-08-26T22:01:22.656Z,11.43
2022-08-26T22:03:53.431Z,11.55
2022-08-26T22:06:28.716Z,10.52
2022-08-26T22:08:57.326Z,11.23
2022-08-26T22:11:26.150Z,10.60
2022-08-26T22:13:55.205Z,11.07
2022-08-26T22:16:23.387Z,12.55
2022-08-26T22:18:53.329Z,11.63
2022-08-26T22:21:24.624Z,10.57
2022-08-26T22:23:58.014Z,11.25
2022-08-26T22:26:28.693Z,11.23
2022-08-26T22:28:59.091Z,10.90
2022-08-26T22:31:37.988Z,10.63
2022-08-26T22:34:09.578Z,11.18
2022-08-26T22:36:42.941Z,11.80
2022-08-26T22:39:13.049Z,11.32
2022-08-26T22:41:42.058Z,12.60
2022-08-26T22:44:10.518Z,12.82
2022-08-26T22:46:39.192Z,14.45
2022-08-26T22:49:10.178Z,13.77
2022-08-26T22:51:38.274Z,12.75
2022-08-26T22:54:06.745Z,13.50
2022-08-26T22:56:34.979Z,14.52
2022-08-26T22:59:03.153Z,14.80
2022-08-26T23:01:31.775Z,12.75
2022-08-26T23:03:59.902Z,14.18
2022-08-26T23:06:29.310Z,15.95
2022-08-26T23:08:57.384Z,15.07
2022-08-26T23:11:25.440Z,15.57
2022-08-26T23:13:53.485Z,16.38
2022-08-26T23:16:21.595Z,17.55
2022-08-26T23:18:50.321Z,17.98
2022-08-26T23:21:18.437Z,19.27
2022-08-26T23:23:47.867Z,16.42
2022-08-26T23:26:17.776Z,18.88
2022-08-26T23:28:47.030Z,16.75
2022-08-26T23:31:15.362Z,16.48
2022-08-26T23:34:00.932Z,16.60
2022-08-26T23:36:31.176Z,18.02
2022-08-26T23:39:05.853Z,15.85
2022-08-26T23:41:35.678Z,16.85
2022-08-26T23:44:05.345Z,14.75
2022-08-26T23:46:34.476Z,16.65
2022-08-26T23:49:04.061Z,14.52
2022-08-26T23:51:49.470Z,14.60
2022-08-26T23:54:19.542Z,17.88
2022-08-26T23:56:48.219Z,18.40
2022-08-26T23:59:16.677Z,16.52
